sensor_id;sensor_type;location;lat;lon;timestamp;temperature;humidity
18153;DHT22;9202;51.578;7.734;2022-12-19T00:00:59;1.90;99.90
18153;DHT22;9202;51.578;7.734;2022-12-19T00:03:04;1.90;99.90
18153;DHT22;9202;51.578;7.734;2022-12-19T00:05:15;1.90;99.90
18153;DHT22;9202;51.578;7.734;2022-12-19T00:07:20;1.90;99.90
18153;DHT22;9202;51.578;7.734;2022-12-19T00:09:24;1.90;99.90
18153;DHT22;9202;51.578;7.734;2022-12-19T00:11:27;1.90;99.90
18153;DHT22;9202;51.578;7.734;2022-12-19T00:13:30;1.90;99.90
18153;DHT22;9202;51.578;7.734;2022-12-19T00:15:35;1.90;99.90
18153;DHT22;9202;51.578;7.734;2022-12-19T00:17:38;1.90;99.90
18153;DHT22;9202;51.578;7.734;2022-12-19T00:19:40;1.90;99.90
18153;DHT22;9202;51.578;7.734;2022-12-19T00:21:43;2.00;99.90
18153;DHT22;9202;51.578;7.734;2022-12-19T00:23:46;1.90;99.90
18153;DHT22;9202;51.578;7.734;2022-12-19T00:25:48;1.90;99.90
18153;DHT22;9202;51.578;7.734;2022-12-19T00:27:51;1.90;99.90
18153;DHT22;9202;51.578;7.734;2022-12-19T00:29:54;1.90;99.90
18153;DHT22;9202;51.578;7.734;2022-12-19T00:31:57;1.90;99.90
18153;DHT22;9202;51.578;7.734;2022-12-19T00:34:00;1.90;99.90
18153;DHT22;9202;51.578;7.734;2022-12-19T00:36:03;2.00;99.90
18153;DHT22;9202;51.578;7.734;2022-12-19T00:38:06;2.00;99.90
18153;DHT22;9202;51.578;7.734;2022-12-19T00:40:10;2.00;99.90
18153;DHT22;9202;51.578;7.734;2022-12-19T00:42:13;2.00;99.90
18153;DHT22;9202;51.578;7.734;2022-12-19T00:44:16;2.10;99.90
18153;DHT22;9202;51.578;7.734;2022-12-19T00:46:18;1.60;99.90
18153;DHT22;9202;51.578;7.734;2022-12-19T00:48:21;2.00;99.90
18153;DHT22;9202;51.578;7.734;2022-12-19T00:50:24;2.00;99.90
18153;DHT22;9202;51.578;7.734;2022-12-19T00:52:26;2.10;99.90
18153;DHT22;9202;51.578;7.734;2022-12-19T00:54:31;2.10;99.90
18153;DHT22;9202;51.578;7.734;2022-12-19T00:56:35;2.00;99.90
18153;DHT22;9202;51.578;7.734;2022-12-19T00:58:41;2.10;99.90
18153;DHT22;9202;51.578;7.734;2022-12-19T01:00:45;2.30;99.90
18153;DHT22;9202;51.578;7.734;2022-12-19T01:02:48;2.20;99.90
18153;DHT22;9202;51.578;7.734;2022-12-19T01:04:51;2.20;99.90
18153;DHT22;9202;51.578;7.734;2022-12-19T01:06:53;2.20;99.90
18153;DHT22;9202;51.578;7.734;2022-12-19T01:08:58;2.20;99.90
18153;DHT22;9202;51.578;7.734;2022-12-19T01:11:00;2.20;99.90
18153;DHT22;9202;51.578;7.734;2022-12-19T01:13:03;2.20;99.90
18153;DHT22;9202;51.578;7.734;2022-12-19T01:15:06;2.20;99.90
18153;DHT22;9202;51.578;7.734;2022-12-19T01:17:09;2.20;99.90
18153;DHT22;9202;51.578;7.734;2022-12-19T01:19:12;2.20;99.90
18153;DHT22;9202;51.578;7.734;2022-12-19T01:21:14;2.30;99.90
18153;DHT22;9202;51.578;7.734;2022-12-19T01:23:17;2.30;99.90
18153;DHT22;9202;51.578;7.734;2022-12-19T01:25:19;2.30;99.90
18153;DHT22;9202;51.578;7.734;2022-12-19T01:27:22;2.30;99.90
18153;DHT22;9202;51.578;7.734;2022-12-19T01:29:25;2.30;99.90
18153;DHT22;9202;51.578;7.734;2022-12-19T01:31:28;2.20;99.90
18153;DHT22;9202;51.578;7.734;2022-12-19T01:33:31;2.20;99.90
18153;DHT22;9202;51.578;7.734;2022-12-19T01:35:34;2.30;99.90
18153;DHT22;9202;51.578;7.734;2022-12-19T01:37:37;2.30;99.90
18153;DHT22;9202;51.578;7.734;2022-12-19T01:39:40;2.30;99.90
18153;DHT22;9202;51.578;7.734;2022-12-19T01:41:44;2.40;99.90
18153;DHT22;9202;51.578;7.734;2022-12-19T01:43:55;2.50;99.90
18153;DHT22;9202;51.578;7.734;2022-12-19T01:45:59;2.50;99.90
18153;DHT22;9202;51.578;7.734;2022-12-19T01:48:05;2.50;99.90
18153;DHT22;9202;51.578;7.734;2022-12-19T01:50:08;2.50;99.90
18153;DHT22;9202;51.578;7.734;2022-12-19T01:52:12;2.60;99.90
18153;DHT22;9202;51.578;7.734;2022-12-19T01:54:18;2.60;99.90
18153;DHT22;9202;51.578;7.734;2022-12-19T01:56:22;2.50;99.90
18153;DHT22;9202;51.578;7.734;2022-12-19T01:58:26;2.70;99.90
18153;DHT22;9202;51.578;7.734;2022-12-19T02:00:28;2.60;99.90
18153;DHT22;9202;51.578;7.734;2022-12-19T02:02:32;2.70;99.90
18153;DHT22;9202;51.578;7.734;2022-12-19T02:04:35;2.80;99.90
18153;DHT22;9202;51.578;7.734;2022-12-19T02:06:38;2.80;99.90
18153;DHT22;9202;51.578;7.734;2022-12-19T02:08:41;2.80;99.90
18153;DHT22;9202;51.578;7.734;2022-12-19T02:10:44;2.80;99.90
18153;DHT22;9202;51.578;7.734;2022-12-19T02:12:48;2.80;99.90
18153;DHT22;9202;51.578;7.734;2022-12-19T02:14:51;2.80;99.90
18153;DHT22;9202;51.578;7.734;2022-12-19T02:16:58;2.80;99.90
18153;DHT22;9202;51.578;7.734;2022-12-19T02:19:07;2.90;99.90
18153;DHT22;9202;51.578;7.734;2022-12-19T02:21:12;2.90;99.90
18153;DHT22;9202;51.578;7.734;2022-12-19T02:25:44;2.90;99.90
18153;DHT22;9202;51.578;7.734;2022-12-19T02:27:53;2.90;99.90
18153;DHT22;9202;51.578;7.734;2022-12-19T02:30:06;2.90;99.90
18153;DHT22;9202;51.578;7.734;2022-12-19T02:32:14;3.00;99.90
18153;DHT22;9202;51.578;7.734;2022-12-19T02:34:21;2.90;99.90
18153;DHT22;9202;51.578;7.734;2022-12-19T02:36:28;3.00;99.90
18153;DHT22;9202;51.578;7.734;2022-12-19T02:38:35;3.00;99.90
18153;DHT22;9202;51.578;7.734;2022-12-19T02:40:39;3.00;99.90
18153;DHT22;9202;51.578;7.734;2022-12-19T02:42:44;3.00;99.90
18153;DHT22;9202;51.578;7.734;2022-12-19T02:44:49;3.10;99.90
18153;DHT22;9202;51.578;7.734;2022-12-19T02:46:52;3.10;99.90
18153;DHT22;9202;51.578;7.734;2022-12-19T02:48:57;3.20;99.90
18153;DHT22;9202;51.578;7.734;2022-12-19T02:50:59;3.20;99.90
18153;DHT22;9202;51.578;7.734;2022-12-19T02:53:02;3.30;99.90
18153;DHT22;9202;51.578;7.734;2022-12-19T02:55:06;3.30;99.90
18153;DHT22;9202;51.578;7.734;2022-12-19T02:57:11;3.30;99.90
18153;DHT22;9202;51.578;7.734;2022-12-19T02:59:22;3.40;99.90
18153;DHT22;9202;51.578;7.734;2022-12-19T03:01:30;3.40;99.90
18153;DHT22;9202;51.578;7.734;2022-12-19T03:03:35;3.40;99.90
18153;DHT22;9202;51.578;7.734;2022-12-19T03:05:40;3.40;99.90
18153;DHT22;9202;51.578;7.734;2022-12-19T03:07:46;3.50;99.90
18153;DHT22;9202;51.578;7.734;2022-12-19T03:09:49;3.50;99.90
18153;DHT22;9202;51.578;7.734;2022-12-19T03:11:56;3.50;99.90
18153;DHT22;9202;51.578;7.734;2022-12-19T03:14:00;3.60;99.90
18153;DHT22;9202;51.578;7.734;2022-12-19T03:16:05;3.60;99.90
18153;DHT22;9202;51.578;7.734;2022-12-19T03:18:09;3.70;99.90
18153;DHT22;9202;51.578;7.734;2022-12-19T03:20:15;3.80;99.90
18153;DHT22;9202;51.578;7.734;2022-12-19T03:22:18;3.90;99.90
18153;DHT22;9202;51.578;7.734;2022-12-19T03:24:20;4.00;99.90
18153;DHT22;9202;51.578;7.734;2022-12-19T03:26:23;4.00;99.90
18153;DHT22;9202;51.578;7.734;2022-12-19T03:28:28;4.10;99.90
18153;DHT22;9202;51.578;7.734;2022-12-19T03:30:31;4.10;99.90
18153;DHT22;9202;51.578;7.734;2022-12-19T03:32:35;4.20;99.90
18153;DHT22;9202;51.578;7.734;2022-12-19T03:34:39;4.20;99.90
18153;DHT22;9202;51.578;7.734;2022-12-19T03:36:43;4.30;99.90
18153;DHT22;9202;51.578;7.734;2022-12-19T03:38:46;4.40;99.90
18153;DHT22;9202;51.578;7.734;2022-12-19T03:40:49;4.30;99.90
18153;DHT22;9202;51.578;7.734;2022-12-19T03:42:54;4.30;99.90
18153;DHT22;9202;51.578;7.734;2022-12-19T03:45:24;4.50;99.90
18153;DHT22;9202;51.578;7.734;2022-12-19T03:47:28;4.40;99.90
18153;DHT22;9202;51.578;7.734;2022-12-19T03:49:31;4.40;99.90
18153;DHT22;9202;51.578;7.734;2022-12-19T03:51:36;4.50;99.90
18153;DHT22;9202;51.578;7.734;2022-12-19T03:53:44;4.50;99.90
18153;DHT22;9202;51.578;7.734;2022-12-19T03:55:48;4.50;99.90
18153;DHT22;9202;51.578;7.734;2022-12-19T03:57:53;4.50;99.90
18153;DHT22;9202;51.578;7.734;2022-12-19T03:59:59;4.50;99.90
18153;DHT22;9202;51.578;7.734;2022-12-19T04:02:01;4.10;99.90
18153;DHT22;9202;51.578;7.734;2022-12-19T04:04:05;4.60;99.90
18153;DHT22;9202;51.578;7.734;2022-12-19T04:06:11;4.50;99.90
18153;DHT22;9202;51.578;7.734;2022-12-19T04:08:15;4.60;99.90
18153;DHT22;9202;51.578;7.734;2022-12-19T04:10:19;4.50;99.90
18153;DHT22;9202;51.578;7.734;2022-12-19T04:12:23;4.50;99.90
18153;DHT22;9202;51.578;7.734;2022-12-19T04:14:27;4.50;99.90
18153;DHT22;9202;51.578;7.734;2022-12-19T04:16:31;4.60;99.90
18153;DHT22;9202;51.578;7.734;2022-12-19T04:18:35;4.70;99.90
18153;DHT22;9202;51.578;7.734;2022-12-19T04:20:39;4.80;99.90
18153;DHT22;9202;51.578;7.734;2022-12-19T04:22:44;4.80;99.90
18153;DHT22;9202;51.578;7.734;2022-12-19T04:24:47;4.90;99.90
18153;DHT22;9202;51.578;7.734;2022-12-19T04:26:51;4.90;99.90
18153;DHT22;9202;51.578;7.734;2022-12-19T04:28:55;5.00;99.90
18153;DHT22;9202;51.578;7.734;2022-12-19T04:30:59;5.00;99.90
18153;DHT22;9202;51.578;7.734;2022-12-19T04:33:03;5.00;99.90
18153;DHT22;9202;51.578;7.734;2022-12-19T04:35:07;5.10;99.90
18153;DHT22;9202;51.578;7.734;2022-12-19T04:37:10;5.10;99.90
18153;DHT22;9202;51.578;7.734;2022-12-19T04:39:13;5.10;99.90
18153;DHT22;9202;51.578;7.734;2022-12-19T04:41:15;5.10;99.90
18153;DHT22;9202;51.578;7.734;2022-12-19T04:43:18;5.10;99.90
18153;DHT22;9202;51.578;7.734;2022-12-19T04:45:21;5.40;99.90
18153;DHT22;9202;51.578;7.734;2022-12-19T04:47:23;5.30;99.90
18153;DHT22;9202;51.578;7.734;2022-12-19T04:49:26;5.30;99.90
18153;DHT22;9202;51.578;7.734;2022-12-19T04:51:29;5.30;99.90
18153;DHT22;9202;51.578;7.734;2022-12-19T04:53:31;5.30;99.90
18153;DHT22;9202;51.578;7.734;2022-12-19T04:55:34;5.40;99.90
18153;DHT22;9202;51.578;7.734;2022-12-19T04:57:36;5.40;99.90
18153;DHT22;9202;51.578;7.734;2022-12-19T04:59:39;5.40;99.90
18153;DHT22;9202;51.578;7.734;2022-12-19T05:01:41;5.40;99.90
18153;DHT22;9202;51.578;7.734;2022-12-19T05:03:44;5.40;99.90
18153;DHT22;9202;51.578;7.734;2022-12-19T05:05:48;5.40;99.90
18153;DHT22;9202;51.578;7.734;2022-12-19T05:07:51;5.40;99.90
18153;DHT22;9202;51.578;7.734;2022-12-19T05:09:53;5.30;99.90
18153;DHT22;9202;51.578;7.734;2022-12-19T05:11:56;5.40;99.90
18153;DHT22;9202;51.578;7.734;2022-12-19T05:13:58;5.30;99.90
18153;DHT22;9202;51.578;7.734;2022-12-19T05:16:02;5.30;99.90
18153;DHT22;9202;51.578;7.734;2022-12-19T05:18:05;5.40;99.90
18153;DHT22;9202;51.578;7.734;2022-12-19T05:20:09;5.50;99.90
18153;DHT22;9202;51.578;7.734;2022-12-19T05:22:11;5.60;99.90
18153;DHT22;9202;51.578;7.734;2022-12-19T05:24:14;5.80;99.90
18153;DHT22;9202;51.578;7.734;2022-12-19T05:26:17;5.90;99.90
18153;DHT22;9202;51.578;7.734;2022-12-19T05:28:20;6.00;99.90
18153;DHT22;9202;51.578;7.734;2022-12-19T05:30:22;6.30;99.90
18153;DHT22;9202;51.578;7.734;2022-12-19T05:32:28;6.30;99.90
18153;DHT22;9202;51.578;7.734;2022-12-19T05:34:29;5.90;99.90
18153;DHT22;9202;51.578;7.734;2022-12-19T05:36:32;5.80;99.90
18153;DHT22;9202;51.578;7.734;2022-12-19T05:38:35;5.80;99.90
18153;DHT22;9202;51.578;7.734;2022-12-19T05:40:37;5.80;99.90
18153;DHT22;9202;51.578;7.734;2022-12-19T05:42:39;5.80;99.90
18153;DHT22;9202;51.578;7.734;2022-12-19T05:44:42;5.80;99.90
18153;DHT22;9202;51.578;7.734;2022-12-19T05:46:45;5.80;99.90
18153;DHT22;9202;51.578;7.734;2022-12-19T05:48:47;5.70;99.90
18153;DHT22;9202;51.578;7.734;2022-12-19T05:50:51;5.90;99.90
18153;DHT22;9202;51.578;7.734;2022-12-19T05:52:53;5.90;99.90
18153;DHT22;9202;51.578;7.734;2022-12-19T05:54:56;5.90;99.90
18153;DHT22;9202;51.578;7.734;2022-12-19T05:56:58;5.90;99.90
18153;DHT22;9202;51.578;7.734;2022-12-19T05:59:01;5.90;99.90
18153;DHT22;9202;51.578;7.734;2022-12-19T06:01:05;5.90;99.90
18153;DHT22;9202;51.578;7.734;2022-12-19T06:03:08;5.90;99.90
18153;DHT22;9202;51.578;7.734;2022-12-19T06:05:11;5.90;99.90
18153;DHT22;9202;51.578;7.734;2022-12-19T06:07:14;5.90;99.90
18153;DHT22;9202;51.578;7.734;2022-12-19T06:09:18;5.90;99.90
18153;DHT22;9202;51.578;7.734;2022-12-19T06:11:21;5.90;99.90
18153;DHT22;9202;51.578;7.734;2022-12-19T06:13:24;6.00;99.90
18153;DHT22;9202;51.578;7.734;2022-12-19T06:15:26;6.00;99.90
18153;DHT22;9202;51.578;7.734;2022-12-19T06:17:29;6.10;99.90
18153;DHT22;9202;51.578;7.734;2022-12-19T06:19:32;6.00;99.90
18153;DHT22;9202;51.578;7.734;2022-12-19T06:21:35;6.10;99.90
18153;DHT22;9202;51.578;7.734;2022-12-19T06:23:40;6.20;99.90
18153;DHT22;9202;51.578;7.734;2022-12-19T06:25:43;6.20;99.90
18153;DHT22;9202;51.578;7.734;2022-12-19T06:27:45;6.20;99.90
18153;DHT22;9202;51.578;7.734;2022-12-19T06:29:48;6.20;99.90
18153;DHT22;9202;51.578;7.734;2022-12-19T06:31:50;6.20;99.90
18153;DHT22;9202;51.578;7.734;2022-12-19T06:33:53;6.20;99.90
18153;DHT22;9202;51.578;7.734;2022-12-19T06:35:57;6.20;99.90
18153;DHT22;9202;51.578;7.734;2022-12-19T06:38:00;6.20;99.90
18153;DHT22;9202;51.578;7.734;2022-12-19T06:40:03;6.30;99.90
18153;DHT22;9202;51.578;7.734;2022-12-19T06:42:07;6.30;99.90
18153;DHT22;9202;51.578;7.734;2022-12-19T06:44:25;6.30;99.90
18153;DHT22;9202;51.578;7.734;2022-12-19T06:46:28;6.30;99.90
18153;DHT22;9202;51.578;7.734;2022-12-19T06:48:30;6.30;99.90
18153;DHT22;9202;51.578;7.734;2022-12-19T06:50:33;6.30;99.90
18153;DHT22;9202;51.578;7.734;2022-12-19T06:52:36;6.40;99.90
18153;DHT22;9202;51.578;7.734;2022-12-19T06:54:40;6.40;99.90
18153;DHT22;9202;51.578;7.734;2022-12-19T06:56:44;6.40;99.90
18153;DHT22;9202;51.578;7.734;2022-12-19T06:58:47;6.40;99.90
18153;DHT22;9202;51.578;7.734;2022-12-19T07:00:50;6.50;99.90
18153;DHT22;9202;51.578;7.734;2022-12-19T07:02:52;6.40;99.90
18153;DHT22;9202;51.578;7.734;2022-12-19T07:04:56;6.50;99.90
18153;DHT22;9202;51.578;7.734;2022-12-19T07:07:00;6.50;99.90
18153;DHT22;9202;51.578;7.734;2022-12-19T07:09:03;6.50;99.90
18153;DHT22;9202;51.578;7.734;2022-12-19T07:11:06;6.40;99.90
18153;DHT22;9202;51.578;7.734;2022-12-19T07:13:10;6.50;99.90
18153;DHT22;9202;51.578;7.734;2022-12-19T07:15:12;6.50;99.90
18153;DHT22;9202;51.578;7.734;2022-12-19T07:17:15;6.50;99.90
18153;DHT22;9202;51.578;7.734;2022-12-19T07:19:19;6.50;99.90
18153;DHT22;9202;51.578;7.734;2022-12-19T07:21:23;6.60;99.90
18153;DHT22;9202;51.578;7.734;2022-12-19T07:23:26;6.60;99.90
18153;DHT22;9202;51.578;7.734;2022-12-19T07:25:30;6.60;99.90
18153;DHT22;9202;51.578;7.734;2022-12-19T07:27:34;6.60;99.90
18153;DHT22;9202;51.578;7.734;2022-12-19T07:29:39;6.60;99.90
18153;DHT22;9202;51.578;7.734;2022-12-19T07:31:42;6.70;99.90
18153;DHT22;9202;51.578;7.734;2022-12-19T07:33:44;6.70;99.90
18153;DHT22;9202;51.578;7.734;2022-12-19T07:35:47;6.70;99.90
18153;DHT22;9202;51.578;7.734;2022-12-19T07:37:49;6.80;99.90
18153;DHT22;9202;51.578;7.734;2022-12-19T07:39:52;6.80;99.90
18153;DHT22;9202;51.578;7.734;2022-12-19T07:41:54;6.80;99.90
18153;DHT22;9202;51.578;7.734;2022-12-19T07:43:59;6.90;99.90
18153;DHT22;9202;51.578;7.734;2022-12-19T07:46:01;6.90;99.90
18153;DHT22;9202;51.578;7.734;2022-12-19T07:48:04;7.00;99.90
18153;DHT22;9202;51.578;7.734;2022-12-19T07:50:08;7.10;99.90
18153;DHT22;9202;51.578;7.734;2022-12-19T07:52:10;7.10;99.90
18153;DHT22;9202;51.578;7.734;2022-12-19T07:54:13;7.20;99.90
18153;DHT22;9202;51.578;7.734;2022-12-19T07:56:15;7.20;99.90
18153;DHT22;9202;51.578;7.734;2022-12-19T07:58:19;7.30;99.90
18153;DHT22;9202;51.578;7.734;2022-12-19T08:00:21;7.20;99.90
18153;DHT22;9202;51.578;7.734;2022-12-19T08:02:24;7.20;99.90
18153;DHT22;9202;51.578;7.734;2022-12-19T08:04:27;7.20;99.90
18153;DHT22;9202;51.578;7.734;2022-12-19T08:06:30;7.20;99.90
18153;DHT22;9202;51.578;7.734;2022-12-19T08:08:34;7.20;99.90
18153;DHT22;9202;51.578;7.734;2022-12-19T08:10:38;7.20;99.90
18153;DHT22;9202;51.578;7.734;2022-12-19T08:12:43;7.20;99.90
18153;DHT22;9202;51.578;7.734;2022-12-19T08:14:46;7.30;99.90
18153;DHT22;9202;51.578;7.734;2022-12-19T08:16:51;7.20;99.90
18153;DHT22;9202;51.578;7.734;2022-12-19T08:18:55;7.30;99.90
18153;DHT22;9202;51.578;7.734;2022-12-19T08:20:57;7.30;99.90
18153;DHT22;9202;51.578;7.734;2022-12-19T08:23:00;7.30;99.90
18153;DHT22;9202;51.578;7.734;2022-12-19T08:25:03;7.30;99.90
18153;DHT22;9202;51.578;7.734;2022-12-19T08:27:06;7.30;99.90
18153;DHT22;9202;51.578;7.734;2022-12-19T08:29:09;7.30;99.90
18153;DHT22;9202;51.578;7.734;2022-12-19T08:31:12;7.30;99.90
18153;DHT22;9202;51.578;7.734;2022-12-19T08:33:15;7.40;99.90
18153;DHT22;9202;51.578;7.734;2022-12-19T08:35:17;7.40;99.90
18153;DHT22;9202;51.578;7.734;2022-12-19T08:37:20;7.50;99.90
18153;DHT22;9202;51.578;7.734;2022-12-19T08:39:23;7.60;99.90
18153;DHT22;9202;51.578;7.734;2022-12-19T08:41:25;7.50;99.90
18153;DHT22;9202;51.578;7.734;2022-12-19T08:43:28;7.50;99.90
18153;DHT22;9202;51.578;7.734;2022-12-19T08:45:31;7.50;99.90
18153;DHT22;9202;51.578;7.734;2022-12-19T08:47:33;7.60;99.90
18153;DHT22;9202;51.578;7.734;2022-12-19T08:49:36;7.60;99.90
18153;DHT22;9202;51.578;7.734;2022-12-19T08:51:38;7.60;99.90
18153;DHT22;9202;51.578;7.734;2022-12-19T08:53:41;7.60;99.90
18153;DHT22;9202;51.578;7.734;2022-12-19T08:55:44;7.60;99.90
18153;DHT22;9202;51.578;7.734;2022-12-19T08:57:47;7.50;99.90
18153;DHT22;9202;51.578;7.734;2022-12-19T08:59:49;7.50;99.90
18153;DHT22;9202;51.578;7.734;2022-12-19T09:01:53;7.50;99.90
18153;DHT22;9202;51.578;7.734;2022-12-19T09:03:57;7.50;99.90
18153;DHT22;9202;51.578;7.734;2022-12-19T09:06:03;7.50;99.90
18153;DHT22;9202;51.578;7.734;2022-12-19T09:08:08;7.50;99.90
18153;DHT22;9202;51.578;7.734;2022-12-19T09:10:10;7.60;99.90
18153;DHT22;9202;51.578;7.734;2022-12-19T09:12:13;7.60;99.90
18153;DHT22;9202;51.578;7.734;2022-12-19T09:14:16;7.60;99.90
18153;DHT22;9202;51.578;7.734;2022-12-19T09:16:20;7.60;99.90
18153;DHT22;9202;51.578;7.734;2022-12-19T09:18:23;7.60;99.90
18153;DHT22;9202;51.578;7.734;2022-12-19T09:20:26;7.70;99.90
18153;DHT22;9202;51.578;7.734;2022-12-19T09:22:28;7.70;99.90
18153;DHT22;9202;51.578;7.734;2022-12-19T09:24:31;7.80;99.90
18153;DHT22;9202;51.578;7.734;2022-12-19T09:26:34;7.80;99.90
18153;DHT22;9202;51.578;7.734;2022-12-19T09:28:37;7.80;99.90
18153;DHT22;9202;51.578;7.734;2022-12-19T09:30:40;7.90;99.90
18153;DHT22;9202;51.578;7.734;2022-12-19T09:32:42;7.90;99.90
18153;DHT22;9202;51.578;7.734;2022-12-19T09:34:45;7.90;99.90
18153;DHT22;9202;51.578;7.734;2022-12-19T09:36:49;7.90;99.90
18153;DHT22;9202;51.578;7.734;2022-12-19T09:38:52;7.90;99.90
18153;DHT22;9202;51.578;7.734;2022-12-19T09:41:08;7.90;99.90
18153;DHT22;9202;51.578;7.734;2022-12-19T09:43:03;8.00;99.90
18153;DHT22;9202;51.578;7.734;2022-12-19T09:45:12;8.00;99.90
18153;DHT22;9202;51.578;7.734;2022-12-19T09:47:18;8.00;99.90
18153;DHT22;9202;51.578;7.734;2022-12-19T09:49:22;8.10;99.90
18153;DHT22;9202;51.578;7.734;2022-12-19T09:51:29;8.10;99.90
18153;DHT22;9202;51.578;7.734;2022-12-19T09:53:34;8.20;99.90
18153;DHT22;9202;51.578;7.734;2022-12-19T09:55:38;8.20;99.90
18153;DHT22;9202;51.578;7.734;2022-12-19T09:57:43;8.30;99.90
18153;DHT22;9202;51.578;7.734;2022-12-19T09:59:47;8.30;99.90
18153;DHT22;9202;51.578;7.734;2022-12-19T10:01:52;8.40;99.90
18153;DHT22;9202;51.578;7.734;2022-12-19T10:03:58;8.40;99.90
18153;DHT22;9202;51.578;7.734;2022-12-19T10:06:03;8.40;99.90
18153;DHT22;9202;51.578;7.734;2022-12-19T10:08:12;8.40;99.90
18153;DHT22;9202;51.578;7.734;2022-12-19T10:10:17;8.40;99.90
18153;DHT22;9202;51.578;7.734;2022-12-19T10:12:26;8.40;99.90
18153;DHT22;9202;51.578;7.734;2022-12-19T10:14:35;8.40;99.90
18153;DHT22;9202;51.578;7.734;2022-12-19T10:16:39;8.50;99.90
18153;DHT22;9202;51.578;7.734;2022-12-19T10:18:43;8.50;99.90
18153;DHT22;9202;51.578;7.734;2022-12-19T10:20:49;8.50;99.90
18153;DHT22;9202;51.578;7.734;2022-12-19T10:22:58;8.60;99.90
18153;DHT22;9202;51.578;7.734;2022-12-19T10:25:12;8.60;99.90
18153;DHT22;9202;51.578;7.734;2022-12-19T10:27:19;8.60;99.90
18153;DHT22;9202;51.578;7.734;2022-12-19T10:29:26;8.70;99.90
18153;DHT22;9202;51.578;7.734;2022-12-19T10:31:31;8.80;99.90
18153;DHT22;9202;51.578;7.734;2022-12-19T10:33:35;8.90;99.90
18153;DHT22;9202;51.578;7.734;2022-12-19T10:35:41;8.90;99.90
18153;DHT22;9202;51.578;7.734;2022-12-19T10:37:46;8.90;99.90
18153;DHT22;9202;51.578;7.734;2022-12-19T10:39:55;9.00;99.90
18153;DHT22;9202;51.578;7.734;2022-12-19T10:42:01;9.10;99.90
18153;DHT22;9202;51.578;7.734;2022-12-19T10:44:05;9.10;99.90
18153;DHT22;9202;51.578;7.734;2022-12-19T10:46:09;9.20;99.90
18153;DHT22;9202;51.578;7.734;2022-12-19T10:48:16;9.30;99.90
18153;DHT22;9202;51.578;7.734;2022-12-19T10:50:21;9.30;99.90
18153;DHT22;9202;51.578;7.734;2022-12-19T10:52:44;9.30;99.90
18153;DHT22;9202;51.578;7.734;2022-12-19T10:54:46;9.30;99.90
18153;DHT22;9202;51.578;7.734;2022-12-19T10:56:48;9.40;99.90
18153;DHT22;9202;51.578;7.734;2022-12-19T10:58:51;9.40;99.90
18153;DHT22;9202;51.578;7.734;2022-12-19T11:01:08;9.40;99.90
18153;DHT22;9202;51.578;7.734;2022-12-19T11:03:11;9.40;99.90
18153;DHT22;9202;51.578;7.734;2022-12-19T11:05:21;9.30;99.90
18153;DHT22;9202;51.578;7.734;2022-12-19T11:07:24;9.30;99.90
18153;DHT22;9202;51.578;7.734;2022-12-19T11:09:28;9.30;99.90
18153;DHT22;9202;51.578;7.734;2022-12-19T11:11:31;9.30;99.90
18153;DHT22;9202;51.578;7.734;2022-12-19T11:13:41;9.20;99.90
18153;DHT22;9202;51.578;7.734;2022-12-19T11:15:46;9.20;99.90
18153;DHT22;9202;51.578;7.734;2022-12-19T11:17:51;9.10;99.90
18153;DHT22;9202;51.578;7.734;2022-12-19T11:19:55;9.20;99.90
18153;DHT22;9202;51.578;7.734;2022-12-19T11:22:02;9.10;99.90
18153;DHT22;9202;51.578;7.734;2022-12-19T11:24:10;9.20;99.90
18153;DHT22;9202;51.578;7.734;2022-12-19T11:26:25;9.20;99.90
18153;DHT22;9202;51.578;7.734;2022-12-19T11:28:31;9.20;99.90
18153;DHT22;9202;51.578;7.734;2022-12-19T11:30:36;9.10;99.90
18153;DHT22;9202;51.578;7.734;2022-12-19T11:32:41;9.20;99.90
18153;DHT22;9202;51.578;7.734;2022-12-19T11:34:48;9.10;99.90
18153;DHT22;9202;51.578;7.734;2022-12-19T11:36:52;9.20;99.90
18153;DHT22;9202;51.578;7.734;2022-12-19T11:38:55;9.20;99.90
18153;DHT22;9202;51.578;7.734;2022-12-19T11:40:59;9.10;99.90
18153;DHT22;9202;51.578;7.734;2022-12-19T11:43:06;9.20;99.90
18153;DHT22;9202;51.578;7.734;2022-12-19T11:45:15;9.30;99.90
18153;DHT22;9202;51.578;7.734;2022-12-19T11:47:21;9.30;99.90
18153;DHT22;9202;51.578;7.734;2022-12-19T11:49:25;9.30;99.90
18153;DHT22;9202;51.578;7.734;2022-12-19T11:51:36;9.40;99.90
18153;DHT22;9202;51.578;7.734;2022-12-19T11:53:43;9.40;99.90
18153;DHT22;9202;51.578;7.734;2022-12-19T11:55:48;9.40;99.90
18153;DHT22;9202;51.578;7.734;2022-12-19T11:57:53;9.40;99.90
18153;DHT22;9202;51.578;7.734;2022-12-19T11:59:56;9.40;99.90
18153;DHT22;9202;51.578;7.734;2022-12-19T12:02:07;9.40;99.90
18153;DHT22;9202;51.578;7.734;2022-12-19T12:04:30;9.40;99.90
18153;DHT22;9202;51.578;7.734;2022-12-19T12:06:33;9.40;99.90
18153;DHT22;9202;51.578;7.734;2022-12-19T12:08:45;9.40;99.90
18153;DHT22;9202;51.578;7.734;2022-12-19T12:10:52;9.40;99.90
18153;DHT22;9202;51.578;7.734;2022-12-19T12:13:01;9.40;99.90
18153;DHT22;9202;51.578;7.734;2022-12-19T12:15:14;9.40;99.90
18153;DHT22;9202;51.578;7.734;2022-12-19T12:17:22;9.40;99.90
18153;DHT22;9202;51.578;7.734;2022-12-19T12:19:30;9.40;99.90
18153;DHT22;9202;51.578;7.734;2022-12-19T12:21:38;9.40;99.90
18153;DHT22;9202;51.578;7.734;2022-12-19T12:23:46;9.40;99.90
18153;DHT22;9202;51.578;7.734;2022-12-19T12:25:55;9.50;99.90
18153;DHT22;9202;51.578;7.734;2022-12-19T12:28:04;9.50;99.90
18153;DHT22;9202;51.578;7.734;2022-12-19T12:30:09;9.50;99.90
18153;DHT22;9202;51.578;7.734;2022-12-19T12:32:16;9.50;99.90
18153;DHT22;9202;51.578;7.734;2022-12-19T12:34:27;9.60;99.90
18153;DHT22;9202;51.578;7.734;2022-12-19T12:36:34;9.70;99.90
18153;DHT22;9202;51.578;7.734;2022-12-19T12:38:43;9.70;99.90
18153;DHT22;9202;51.578;7.734;2022-12-19T12:40:59;9.70;99.90
18153;DHT22;9202;51.578;7.734;2022-12-19T12:43:05;9.70;99.90
18153;DHT22;9202;51.578;7.734;2022-12-19T12:45:16;9.80;99.90
18153;DHT22;9202;51.578;7.734;2022-12-19T12:47:18;9.90;99.90
18153;DHT22;9202;51.578;7.734;2022-12-19T12:49:30;9.90;99.90
18153;DHT22;9202;51.578;7.734;2022-12-19T12:51:32;9.90;99.90
18153;DHT22;9202;51.578;7.734;2022-12-19T12:53:36;9.90;99.90
18153;DHT22;9202;51.578;7.734;2022-12-19T12:55:41;9.90;99.90
18153;DHT22;9202;51.578;7.734;2022-12-19T12:57:45;9.90;99.90
18153;DHT22;9202;51.578;7.734;2022-12-19T12:59:47;9.90;99.90
18153;DHT22;9202;51.578;7.734;2022-12-19T13:01:52;9.90;99.90
18153;DHT22;9202;51.578;7.734;2022-12-19T13:03:56;9.90;99.90
18153;DHT22;9202;51.578;7.734;2022-12-19T13:06:04;9.80;99.90
18153;DHT22;9202;51.578;7.734;2022-12-19T13:08:28;9.90;99.90
18153;DHT22;9202;51.578;7.734;2022-12-19T13:10:30;9.80;99.90
18153;DHT22;9202;51.578;7.734;2022-12-19T13:12:33;9.90;99.90
18153;DHT22;9202;51.578;7.734;2022-12-19T13:14:55;9.80;99.90
18153;DHT22;9202;51.578;7.734;2022-12-19T13:17:00;9.90;99.90
18153;DHT22;9202;51.578;7.734;2022-12-19T13:19:12;9.90;99.90
18153;DHT22;9202;51.578;7.734;2022-12-19T13:21:09;9.90;99.90
18153;DHT22;9202;51.578;7.734;2022-12-19T13:25:50;9.90;99.90
18153;DHT22;9202;51.578;7.734;2022-12-19T13:27:55;9.90;99.90
18153;DHT22;9202;51.578;7.734;2022-12-19T13:30:02;9.90;99.90
18153;DHT22;9202;51.578;7.734;2022-12-19T13:32:07;9.90;99.90
18153;DHT22;9202;51.578;7.734;2022-12-19T13:34:13;9.90;99.90
18153;DHT22;9202;51.578;7.734;2022-12-19T13:41:23;9.90;99.90
18153;DHT22;9202;51.578;7.734;2022-12-19T13:43:40;9.90;99.90